createdAt,value
2019-03-26T00:00:28.803Z,21.75
2019-03-26T00:02:57.855Z,21.20
2019-03-26T00:05:26.644Z,15.05
2019-03-26T00:07:55.477Z,10.15
2019-03-26T00:10:24.316Z,10.23
2019-03-26T00:12:53.060Z,10.78
2019-03-26T00:15:22.456Z,9.08
2019-03-26T00:17:51.234Z,10.05
2019-03-26T00:20:20.550Z,9.00
2019-03-26T00:22:49.306Z,9.60
2019-03-26T00:25:18.272Z,11.05
2019-03-26T00:27:47.125Z,9.23
2019-03-26T00:30:16.128Z,9.50
2019-03-26T00:32:44.938Z,8.20
2019-03-26T00:35:13.738Z,7.58
2019-03-26T00:37:42.465Z,7.30
2019-03-26T00:40:11.555Z,7.87
2019-03-26T00:42:40.438Z,7.20
2019-03-26T00:45:09.150Z,6.72
2019-03-26T00:47:37.880Z,7.50
2019-03-26T00:50:07.801Z,7.75
2019-03-26T00:52:36.753Z,7.03
2019-03-26T00:55:06.870Z,8.15
2019-03-26T00:57:35.783Z,6.92
2019-03-26T01:00:06.843Z,7.25
2019-03-26T01:02:36.002Z,8.43
2019-03-26T01:05:06.450Z,8.33
2019-03-26T01:07:35.480Z,7.30
2019-03-26T01:10:05.781Z,7.03
2019-03-26T01:12:34.700Z,8.38
2019-03-26T01:15:03.689Z,7.40
2019-03-26T01:17:32.471Z,6.92
2019-03-26T01:20:01.763Z,8.03
2019-03-26T01:22:30.625Z,7.22
2019-03-26T01:24:59.528Z,7.55
2019-03-26T01:27:28.445Z,7.08
2019-03-26T01:29:57.208Z,7.78
2019-03-26T01:32:26.057Z,7.58
2019-03-26T01:34:54.952Z,7.25
2019-03-26T01:37:23.676Z,8.35
2019-03-26T01:39:52.519Z,9.05
2019-03-26T01:42:21.736Z,8.10
2019-03-26T01:44:50.561Z,7.53
2019-03-26T01:47:19.487Z,7.37
2019-03-26T01:49:48.342Z,9.30
2019-03-26T01:52:17.258Z,8.30
2019-03-26T01:54:46.112Z,7.62
2019-03-26T01:57:15.485Z,8.15
2019-03-26T01:59:44.274Z,7.62
2019-03-26T02:02:12.987Z,6.95
2019-03-26T02:04:41.921Z,8.13
2019-03-26T02:07:11.157Z,8.05
2019-03-26T02:09:39.879Z,9.65
2019-03-26T02:12:08.749Z,8.93
2019-03-26T02:14:37.697Z,8.40
2019-03-26T02:17:06.500Z,8.75
2019-03-26T02:19:35.265Z,9.35
2019-03-26T02:22:04.027Z,8.93
2019-03-26T02:24:33.358Z,9.00
2019-03-26T02:27:02.282Z,8.15
2019-03-26T02:29:31.176Z,8.30
2019-03-26T02:32:00.001Z,8.55
2019-03-26T02:34:28.771Z,8.13
2019-03-26T02:36:58.101Z,8.20
2019-03-26T02:39:26.862Z,8.65
2019-03-26T02:41:56.086Z,9.48
2019-03-26T02:44:24.891Z,8.65
2019-03-26T02:46:53.742Z,8.40
2019-03-26T02:49:22.895Z,9.25
2019-03-26T02:51:51.622Z,11.10
2019-03-26T02:54:20.517Z,9.73
2019-03-26T02:56:49.562Z,9.90
2019-03-26T02:59:18.253Z,11.43
2019-03-26T03:01:47.138Z,13.22
2019-03-26T03:04:16.198Z,13.60
2019-03-26T03:06:45.835Z,14.30
2019-03-26T03:09:14.758Z,13.38
2019-03-26T03:11:43.768Z,14.10
2019-03-26T03:14:12.478Z,13.10
2019-03-26T03:16:41.206Z,12.20
2019-03-26T03:19:10.230Z,12.18
2019-03-26T03:21:38.970Z,14.70
2019-03-26T03:24:07.679Z,16.27
2019-03-26T03:26:36.363Z,14.13
2019-03-26T03:29:05.228Z,15.35
2019-03-26T03:31:34.301Z,15.18
2019-03-26T03:34:03.111Z,16.57
2019-03-26T03:36:32.291Z,15.83
2019-03-26T03:39:01.043Z,14.83
2019-03-26T03:41:29.770Z,15.00
2019-03-26T03:43:58.627Z,12.80
2019-03-26T03:46:27.572Z,11.08
2019-03-26T03:48:57.197Z,14.07
2019-03-26T03:51:27.911Z,12.37
2019-03-26T03:53:57.319Z,12.43
2019-03-26T03:56:29.058Z,10.88
2019-03-26T03:58:59.326Z,12.10
2019-03-26T04:01:28.613Z,13.53
2019-03-26T04:03:57.427Z,15.20
2019-03-26T04:06:26.262Z,13.93
2019-03-26T04:08:55.420Z,14.73
2019-03-26T04:11:24.287Z,16.57
2019-03-26T04:13:53.671Z,14.80
2019-03-26T04:16:22.966Z,14.15
2019-03-26T04:18:51.736Z,14.65
2019-03-26T04:21:21.100Z,13.18
2019-03-26T04:23:49.845Z,14.75
2019-03-26T04:26:18.552Z,12.88
2019-03-26T04:28:47.330Z,13.22
2019-03-26T04:31:16.173Z,14.75
2019-03-26T04:33:44.878Z,15.15
2019-03-26T04:36:25.400Z,12.65
2019-03-26T04:38:44.250Z,13.48
2019-03-26T04:41:13.313Z,11.53
2019-03-26T04:43:42.250Z,12.43
2019-03-26T04:46:11.013Z,12.33
2019-03-26T04:48:40.181Z,12.63
2019-03-26T04:51:08.947Z,12.68
2019-03-26T04:53:38.027Z,13.22
2019-03-26T04:56:06.884Z,13.58
2019-03-26T04:58:35.702Z,13.60
2019-03-26T05:01:04.754Z,15.95
2019-03-26T05:03:33.675Z,13.43
2019-03-26T05:06:02.482Z,14.63
2019-03-26T05:08:31.345Z,13.35
2019-03-26T05:11:00.279Z,12.68
2019-03-26T05:13:29.022Z,12.63
2019-03-26T05:15:58.373Z,13.60
2019-03-26T05:18:27.140Z,10.95
2019-03-26T05:20:56.063Z,12.25
2019-03-26T05:23:24.865Z,11.03
2019-03-26T05:25:53.651Z,12.15
2019-03-26T05:28:22.673Z,9.13
2019-03-26T05:30:51.497Z,9.68
2019-03-26T05:33:20.250Z,9.25
2019-03-26T05:35:51.507Z,9.98
2019-03-26T05:38:19.624Z,10.00
2019-03-26T05:40:48.467Z,9.35
2019-03-26T05:43:17.444Z,9.90
2019-03-26T05:45:46.140Z,9.88
2019-03-26T05:48:15.715Z,9.83
2019-03-26T05:50:45.031Z,9.65
2019-03-26T05:53:14.156Z,7.83
2019-03-26T05:55:43.260Z,7.53
2019-03-26T05:58:11.973Z,8.85
2019-03-26T06:00:40.803Z,8.03
2019-03-26T06:03:09.534Z,8.08
2019-03-26T06:05:38.307Z,8.88
2019-03-26T06:08:07.108Z,8.90
2019-03-26T06:10:36.268Z,11.30
2019-03-26T06:13:05.188Z,11.60
2019-03-26T06:15:34.201Z,10.10
2019-03-26T06:18:03.007Z,9.43
2019-03-26T06:20:31.758Z,8.83
2019-03-26T06:23:00.947Z,8.68
2019-03-26T06:25:29.850Z,9.43
2019-03-26T06:27:58.633Z,9.45
2019-03-26T06:30:27.528Z,9.10
2019-03-26T06:32:56.352Z,9.03
2019-03-26T06:35:25.094Z,7.97
2019-03-26T06:37:53.847Z,8.90
2019-03-26T06:40:22.661Z,8.18
2019-03-26T06:42:51.876Z,7.17
2019-03-26T06:45:21.408Z,7.35
2019-03-26T06:47:50.374Z,7.37
2019-03-26T06:50:21.360Z,6.60
2019-03-26T06:52:50.127Z,7.05
2019-03-26T06:55:18.951Z,7.45
2019-03-26T06:57:47.881Z,6.42
2019-03-26T07:00:28.731Z,7.15
2019-03-26T07:02:58.959Z,6.53
2019-03-26T07:05:27.818Z,6.75
2019-03-26T07:07:56.980Z,5.30
2019-03-26T07:10:28.556Z,5.70
2019-03-26T07:12:58.955Z,6.42
2019-03-26T07:15:28.144Z,6.05
2019-03-26T07:17:56.915Z,5.58
2019-03-26T07:20:25.751Z,7.28
2019-03-26T07:22:54.799Z,7.10
2019-03-26T07:25:23.713Z,8.50
2019-03-26T07:27:52.481Z,8.33
2019-03-26T07:30:41.480Z,11.83
2019-03-26T07:33:11.619Z,10.43
2019-03-26T07:35:40.986Z,10.82
2019-03-26T07:38:10.155Z,10.58
2019-03-26T07:40:39.734Z,9.83
2019-03-26T07:43:08.503Z,8.73
2019-03-26T07:45:37.810Z,8.40
2019-03-26T07:48:06.813Z,8.35
2019-03-26T07:50:35.832Z,8.15
2019-03-26T07:53:05.087Z,7.67
2019-03-26T07:55:34.672Z,8.28
2019-03-26T07:58:03.540Z,7.87
2019-03-26T08:00:39.346Z,7.80
2019-03-26T08:03:08.466Z,9.73
2019-03-26T08:05:37.642Z,6.28
2019-03-26T08:08:06.615Z,5.15
2019-03-26T08:10:35.671Z,5.58
2019-03-26T08:13:04.889Z,6.00
2019-03-26T08:15:33.948Z,6.87
2019-03-26T08:18:02.761Z,6.90
2019-03-26T08:20:31.569Z,6.50
2019-03-26T08:23:00.324Z,7.12
2019-03-26T08:25:30.338Z,7.85
2019-03-26T08:27:59.171Z,7.30
2019-03-26T08:30:31.945Z,7.50
2019-03-26T08:33:01.163Z,6.67
2019-03-26T08:35:30.425Z,8.23
2019-03-26T08:38:11.854Z,6.85
2019-03-26T08:40:30.569Z,7.97
2019-03-26T08:42:59.491Z,6.50
2019-03-26T08:45:29.808Z,8.05
2019-03-26T08:48:00.418Z,7.22
2019-03-26T08:50:30.106Z,7.60
2019-03-26T08:52:59.401Z,6.60
2019-03-26T08:55:30.123Z,6.75
2019-03-26T08:57:59.003Z,6.05
2019-03-26T09:00:28.163Z,5.72
2019-03-26T09:02:57.787Z,6.20
2019-03-26T09:05:26.594Z,5.35
2019-03-26T09:07:56.197Z,5.97
2019-03-26T09:10:25.196Z,6.70
2019-03-26T09:12:53.939Z,5.87
2019-03-26T09:15:22.885Z,4.80
2019-03-26T09:17:51.800Z,5.22
2019-03-26T09:20:20.769Z,5.30
2019-03-26T09:22:49.665Z,6.62
2019-03-26T09:25:18.553Z,5.05
2019-03-26T09:27:47.411Z,4.30
2019-03-26T09:30:16.941Z,4.42
2019-03-26T09:32:46.037Z,5.42
2019-03-26T09:35:15.081Z,5.67
2019-03-26T09:37:43.927Z,5.37
2019-03-26T09:40:13.623Z,5.10
2019-03-26T09:42:47.509Z,6.05
2019-03-26T09:45:16.373Z,4.67
2019-03-26T09:47:45.661Z,6.00
2019-03-26T09:50:18.026Z,5.20
2019-03-26T09:52:47.050Z,6.22
2019-03-26T09:55:16.058Z,7.35
2019-03-26T09:57:44.858Z,5.17
2019-03-26T10:00:14.019Z,5.20
2019-03-26T10:02:43.609Z,6.50
2019-03-26T10:05:12.892Z,6.05
2019-03-26T10:07:41.729Z,5.15
2019-03-26T10:10:10.827Z,6.58
2019-03-26T10:12:40.188Z,5.72
2019-03-26T10:15:09.799Z,6.08
2019-03-26T10:17:38.720Z,5.80
2019-03-26T10:20:08.714Z,4.80
2019-03-26T10:22:37.809Z,5.85
2019-03-26T10:25:06.769Z,5.40
2019-03-26T10:27:35.571Z,5.53
2019-03-26T10:30:05.844Z,5.90
2019-03-26T10:32:35.256Z,5.90
2019-03-26T10:35:04.417Z,5.58
2019-03-26T10:37:34.556Z,4.85
2019-03-26T10:40:04.026Z,4.47
2019-03-26T10:42:33.164Z,3.72
2019-03-26T10:45:02.017Z,5.30
2019-03-26T10:47:30.823Z,4.55
2019-03-26T10:49:59.813Z,6.15
2019-03-26T10:52:31.638Z,6.12
2019-03-26T10:54:59.444Z,6.53
2019-03-26T10:57:28.255Z,8.03
2019-03-26T10:59:57.492Z,6.62
2019-03-26T11:02:26.261Z,6.83
2019-03-26T11:04:55.175Z,6.00
2019-03-26T11:07:24.008Z,8.15
2019-03-26T11:09:52.852Z,7.20
2019-03-26T11:12:21.629Z,6.47
2019-03-26T11:14:50.396Z,7.28
2019-03-26T11:17:19.360Z,7.72
2019-03-26T11:19:48.259Z,7.35
2019-03-26T11:22:17.073Z,6.72
2019-03-26T11:24:46.178Z,7.33
2019-03-26T11:27:14.961Z,8.15
2019-03-26T11:29:44.309Z,7.40
2019-03-26T11:32:13.349Z,7.55
2019-03-26T11:34:42.379Z,7.08
2019-03-26T11:37:11.264Z,8.90
2019-03-26T11:39:40.162Z,7.80
2019-03-26T11:42:09.001Z,9.73
2019-03-26T11:44:38.290Z,10.30
2019-03-26T11:47:07.170Z,10.38
2019-03-26T11:49:35.909Z,7.62
2019-03-26T11:52:05.304Z,9.15
2019-03-26T11:54:34.122Z,10.58
2019-03-26T11:57:04.386Z,9.05
2019-03-26T11:59:33.072Z,9.60
2019-03-26T12:02:03.641Z,10.10
2019-03-26T12:04:32.471Z,12.18
2019-03-26T12:07:01.332Z,11.45
2019-03-26T12:09:30.062Z,10.70
2019-03-26T12:11:58.837Z,11.70
2019-03-26T12:14:27.650Z,12.40
2019-03-26T12:16:56.824Z,12.33
2019-03-26T12:19:26.334Z,12.65
2019-03-26T12:21:55.225Z,12.82
2019-03-26T12:24:24.423Z,13.35
2019-03-26T12:26:53.539Z,13.55
2019-03-26T12:29:22.393Z,11.18
2019-03-26T12:31:51.097Z,11.15
2019-03-26T12:34:19.799Z,11.73
2019-03-26T12:36:48.728Z,11.57
2019-03-26T12:39:17.730Z,12.05
2019-03-26T12:41:46.446Z,12.50
2019-03-26T12:44:15.963Z,11.75
2019-03-26T12:46:44.979Z,12.03
2019-03-26T12:49:14.727Z,12.35
2019-03-26T12:51:44.586Z,10.90
2019-03-26T12:54:13.683Z,10.68
2019-03-26T12:56:42.597Z,11.78
2019-03-26T12:59:11.584Z,12.28
2019-03-26T13:01:40.407Z,11.75
2019-03-26T13:04:13.350Z,11.78
2019-03-26T13:06:40.234Z,12.65
2019-03-26T13:09:10.012Z,13.35
2019-03-26T13:11:47.757Z,11.88
2019-03-26T13:14:16.762Z,11.85
2019-03-26T13:16:45.851Z,11.30
2019-03-26T13:19:14.978Z,12.13
2019-03-26T13:21:43.897Z,11.57
2019-03-26T13:24:12.729Z,12.30
2019-03-26T13:26:41.645Z,13.18
2019-03-26T13:29:10.674Z,12.68
2019-03-26T13:31:39.679Z,13.00
2019-03-26T13:34:08.710Z,11.57
2019-03-26T13:36:37.609Z,13.13
2019-03-26T13:39:09.034Z,11.15
2019-03-26T13:41:37.969Z,12.75
2019-03-26T13:44:07.073Z,10.55
2019-03-26T13:46:35.861Z,10.58
2019-03-26T13:49:05.389Z,9.43
2019-03-26T13:51:37.155Z,10.85
2019-03-26T13:54:06.246Z,10.50
2019-03-26T13:56:35.161Z,12.00
2019-03-26T13:59:04.262Z,11.00
2019-03-26T14:01:33.063Z,11.35
2019-03-26T14:04:02.124Z,11.10
2019-03-26T14:06:32.447Z,11.10
2019-03-26T14:09:01.520Z,11.03
2019-03-26T14:11:30.253Z,11.73
2019-03-26T14:13:59.095Z,11.83
2019-03-26T14:16:27.993Z,10.95
2019-03-26T14:18:56.954Z,12.78
2019-03-26T14:21:25.788Z,12.10
2019-03-26T14:23:55.743Z,11.75
2019-03-26T14:26:24.764Z,13.03
2019-03-26T14:28:53.685Z,11.55
2019-03-26T14:31:22.567Z,11.57
2019-03-26T14:33:52.003Z,12.45
2019-03-26T14:36:20.826Z,11.10
2019-03-26T14:38:51.237Z,11.53
2019-03-26T14:41:20.321Z,11.73
2019-03-26T14:43:49.172Z,10.75
2019-03-26T14:46:17.893Z,12.55
2019-03-26T14:48:46.709Z,10.13
2019-03-26T14:51:15.657Z,12.35
2019-03-26T14:53:44.463Z,9.93
2019-03-26T14:56:13.310Z,11.55
2019-03-26T14:58:42.175Z,10.90
2019-03-26T15:01:11.163Z,11.28
2019-03-26T15:03:39.988Z,11.73
2019-03-26T15:06:08.975Z,11.57
2019-03-26T15:08:43.675Z,11.53
2019-03-26T15:11:12.470Z,10.60
2019-03-26T15:13:41.369Z,11.65
2019-03-26T15:16:10.278Z,11.30
2019-03-26T15:18:39.033Z,10.98
2019-03-26T15:21:07.971Z,11.50
2019-03-26T15:23:36.903Z,12.47
2019-03-26T15:26:05.727Z,11.08
2019-03-26T15:28:34.607Z,11.22
2019-03-26T15:31:03.598Z,10.23
2019-03-26T15:33:33.867Z,10.60
2019-03-26T15:36:02.879Z,11.85
2019-03-26T15:38:32.121Z,11.88
2019-03-26T15:41:01.440Z,11.33
2019-03-26T15:43:36.441Z,10.90
2019-03-26T15:46:05.720Z,10.20
2019-03-26T15:48:34.815Z,9.38
2019-03-26T15:51:03.742Z,9.78
2019-03-26T15:53:32.646Z,9.05
2019-03-26T15:56:02.455Z,12.23
2019-03-26T15:58:31.557Z,10.08
2019-03-26T16:01:00.385Z,11.75
2019-03-26T16:03:29.302Z,11.60
2019-03-26T16:05:58.402Z,9.90
2019-03-26T16:08:28.840Z,10.28
2019-03-26T16:10:57.635Z,10.30
2019-03-26T16:13:26.586Z,10.38
2019-03-26T16:15:55.462Z,9.48
2019-03-26T16:18:24.348Z,8.33
2019-03-26T16:20:53.300Z,8.63
2019-03-26T16:23:22.100Z,8.40
2019-03-26T16:25:50.978Z,8.80
2019-03-26T16:28:20.045Z,8.68
2019-03-26T16:30:48.926Z,8.15
2019-03-26T16:33:21.286Z,10.28
2019-03-26T16:35:50.021Z,7.40
2019-03-26T16:38:19.011Z,7.62
2019-03-26T16:40:47.770Z,7.50
2019-03-26T16:43:16.939Z,8.48
2019-03-26T16:45:46.090Z,8.35
2019-03-26T16:48:15.140Z,8.55
2019-03-26T16:50:44.370Z,7.97
2019-03-26T16:53:13.952Z,7.60
2019-03-26T16:55:43.333Z,8.28
2019-03-26T16:58:12.288Z,8.08
2019-03-26T17:00:41.093Z,8.00
2019-03-26T17:03:10.020Z,8.85
2019-03-26T17:05:39.102Z,8.70
2019-03-26T17:08:08.035Z,7.92
2019-03-26T17:10:36.811Z,7.67
2019-03-26T17:13:06.289Z,8.13
2019-03-26T17:15:35.189Z,8.18
2019-03-26T17:18:04.512Z,7.72
2019-03-26T17:20:33.385Z,7.50
2019-03-26T17:23:02.943Z,7.45
2019-03-26T17:25:32.028Z,7.35
2019-03-26T17:28:01.382Z,7.78
2019-03-26T17:30:30.162Z,8.53
2019-03-26T17:32:59.917Z,8.68
2019-03-26T17:35:28.778Z,8.83
2019-03-26T17:38:00.148Z,8.33
2019-03-26T17:40:28.529Z,8.70
2019-03-26T17:42:57.613Z,8.25
2019-03-26T17:45:26.599Z,9.85
2019-03-26T17:47:56.456Z,8.30
2019-03-26T17:50:25.530Z,9.65
2019-03-26T17:52:54.514Z,9.85
2019-03-26T17:55:23.391Z,8.93
2019-03-26T17:57:53.085Z,8.93
2019-03-26T18:00:36.904Z,8.08
2019-03-26T18:03:05.987Z,9.00
2019-03-26T18:05:34.813Z,10.45
2019-03-26T18:08:04.115Z,9.38
2019-03-26T18:10:34.422Z,9.43
2019-03-26T18:13:03.508Z,8.75
2019-03-26T18:15:32.707Z,8.95
2019-03-26T18:18:02.084Z,7.78
2019-03-26T18:20:32.875Z,7.53
2019-03-26T18:23:02.025Z,12.60
2019-03-26T18:25:31.079Z,8.93
2019-03-26T18:28:01.275Z,8.90
2019-03-26T18:30:30.023Z,8.83
2019-03-26T18:32:58.967Z,9.63
2019-03-26T18:35:27.807Z,9.30
2019-03-26T18:37:56.688Z,9.43
2019-03-26T18:40:25.711Z,11.00
2019-03-26T18:42:54.899Z,10.43
2019-03-26T18:45:23.791Z,14.40
2019-03-26T18:47:52.625Z,12.58
2019-03-26T18:50:21.739Z,14.83
2019-03-26T18:52:50.480Z,12.88
2019-03-26T18:55:20.165Z,11.22
2019-03-26T18:57:48.973Z,9.98
2019-03-26T19:00:32.711Z,12.07
2019-03-26T19:03:01.692Z,9.60
2019-03-26T19:05:30.547Z,9.15
2019-03-26T19:08:00.523Z,10.20
2019-03-26T19:10:30.944Z,11.90
2019-03-26T19:13:01.194Z,11.53
2019-03-26T19:15:30.637Z,10.35
2019-03-26T19:17:59.610Z,9.73
2019-03-26T19:20:28.554Z,11.70
2019-03-26T19:22:57.476Z,15.83
2019-03-26T19:25:26.503Z,19.52
2019-03-26T19:27:55.288Z,11.08
2019-03-26T19:30:24.369Z,10.45
2019-03-26T19:32:53.347Z,10.68
2019-03-26T19:35:22.214Z,10.72
2019-03-26T19:37:51.742Z,9.88
2019-03-26T19:40:20.665Z,11.18
2019-03-26T19:42:51.238Z,11.83
2019-03-26T19:45:20.135Z,10.35
2019-03-26T19:47:49.540Z,9.28
2019-03-26T19:50:18.483Z,9.30
2019-03-26T19:52:47.390Z,10.53
2019-03-26T19:55:16.524Z,12.50
2019-03-26T19:57:46.160Z,14.13
2019-03-26T20:00:15.570Z,17.50
2019-03-26T20:02:44.568Z,15.98
2019-03-26T20:05:13.565Z,15.23
2019-03-26T20:07:42.732Z,13.93
2019-03-26T20:10:13.291Z,12.20
2019-03-26T20:12:42.936Z,10.90
2019-03-26T20:15:13.443Z,10.98
2019-03-26T20:17:42.389Z,12.73
2019-03-26T20:20:13.403Z,10.50
2019-03-26T20:22:42.694Z,11.18
2019-03-26T20:25:11.898Z,8.63
2019-03-26T20:27:41.364Z,9.60
2019-03-26T20:30:11.324Z,10.32
2019-03-26T20:32:40.807Z,11.00
2019-03-26T20:35:10.292Z,11.88
2019-03-26T20:37:39.928Z,8.85
2019-03-26T20:40:11.534Z,10.08
2019-03-26T20:42:40.863Z,8.48
2019-03-26T20:45:14.227Z,7.33
2019-03-26T20:47:42.449Z,7.85
2019-03-26T20:50:12.544Z,10.28
2019-03-26T20:52:43.946Z,10.60
2019-03-26T20:55:14.631Z,10.13
2019-03-26T20:57:44.703Z,9.05
2019-03-26T21:00:23.336Z,7.67
2019-03-26T21:02:52.975Z,7.30
2019-03-26T21:05:22.783Z,7.03
2019-03-26T21:07:52.030Z,9.85
2019-03-26T21:10:24.378Z,9.25
2019-03-26T21:12:53.558Z,7.75
2019-03-26T21:15:22.670Z,8.03
2019-03-26T21:17:51.798Z,7.72
2019-03-26T21:20:20.642Z,7.37
2019-03-26T21:22:49.749Z,7.78
2019-03-26T21:25:19.927Z,8.60
2019-03-26T21:27:48.999Z,8.83
2019-03-26T21:30:18.849Z,8.50
2019-03-26T21:32:47.762Z,9.50
2019-03-26T21:35:16.926Z,9.90
2019-03-26T21:37:45.756Z,9.75
2019-03-26T21:40:14.833Z,9.60
2019-03-26T21:42:43.548Z,9.28
2019-03-26T21:45:14.071Z,8.40
2019-03-26T21:47:42.855Z,9.15
2019-03-26T21:50:12.169Z,10.38
2019-03-26T21:52:41.163Z,9.60
2019-03-26T21:55:13.190Z,9.00
2019-03-26T21:57:41.495Z,9.35
2019-03-26T22:00:11.954Z,8.23
2019-03-26T22:02:40.957Z,10.18
2019-03-26T22:05:10.811Z,7.42
2019-03-26T22:07:39.910Z,8.18
2019-03-26T22:10:09.463Z,7.78
2019-03-26T22:12:38.372Z,8.40
2019-03-26T22:15:08.537Z,8.20
2019-03-26T22:17:38.858Z,8.18
2019-03-26T22:20:10.909Z,8.93
2019-03-26T22:22:40.501Z,7.47
2019-03-26T22:25:10.067Z,8.08
2019-03-26T22:27:39.593Z,6.70
2019-03-26T22:30:09.483Z,7.08
2019-03-26T22:32:39.216Z,7.30
2019-03-26T22:35:09.126Z,6.97
2019-03-26T22:37:38.199Z,6.53
2019-03-26T22:40:07.762Z,7.53
2019-03-26T22:42:36.630Z,7.15
2019-03-26T22:45:06.956Z,7.95
2019-03-26T22:47:36.113Z,7.37
2019-03-26T22:50:08.241Z,6.65
2019-03-26T22:52:37.218Z,8.00
2019-03-26T22:55:07.449Z,8.38
2019-03-26T22:57:36.719Z,6.60
2019-03-26T23:00:10.643Z,7.95
2019-03-26T23:02:39.956Z,7.62
2019-03-26T23:05:10.063Z,7.03
2019-03-26T23:07:38.989Z,9.15
2019-03-26T23:10:08.237Z,8.15
2019-03-26T23:12:37.102Z,6.78
2019-03-26T23:15:19.085Z,8.18
2019-03-26T23:17:47.956Z,8.08
2019-03-26T23:20:17.149Z,7.25
2019-03-26T23:22:46.095Z,7.78
2019-03-26T23:25:15.339Z,7.65
2019-03-26T23:27:44.494Z,7.58
2019-03-26T23:30:13.488Z,7.60
2019-03-26T23:32:42.464Z,9.10
2019-03-26T23:35:11.415Z,9.35
2019-03-26T23:37:40.373Z,7.67
2019-03-26T23:40:09.687Z,8.13
2019-03-26T23:42:38.770Z,8.43
2019-03-26T23:45:09.765Z,9.20
2019-03-26T23:47:38.904Z,8.25
2019-03-26T23:50:10.653Z,8.65
2019-03-26T23:52:39.659Z,8.73
2019-03-26T23:55:08.933Z,8.43
2019-03-26T23:57:38.049Z,9.73
